Time;durP1;ratioP1;P1;durP2;ratioP2;P2;SDS_P1;SDS_P2;PMS_P1;PMS_P2;Temp;Humidity;BMP_temperature;BMP_pressure;BME280_temperature;BME280_humidity;BME280_pressure;Samples;Min_cycle;Max_cycle;Signal;HPM_P1;HPM_P2
2020/12/25 00:01:27;;;;;;;77.85;52.45;;;12.30;99.90;;;;;;5080049;28;20348;-70
2020/12/25 00:03:55;;;;;;;80.30;53.72;;;12.30;99.90;;;;;;5088248;28;20509;-70
2020/12/25 00:06:21;;;;;;;69.28;50.15;;;12.20;99.90;;;;;;5085621;28;20049;-70
2020/12/25 00:08:47;;;;;;;76.03;53.10;;;12.20;99.90;;;;;;5074628;28;20427;-70
2020/12/25 00:11:13;;;;;;;78.95;54.25;;;12.20;99.90;;;;;;5074515;28;20403;-68
2020/12/25 00:13:38;;;;;;;76.30;53.17;;;12.20;99.90;;;;;;5081058;28;20024;-69
2020/12/25 00:16:04;;;;;;;82.15;53.33;;;12.20;99.90;;;;;;5078217;28;20040;-70
2020/12/25 00:18:30;;;;;;;82.07;55.40;;;12.20;99.90;;;;;;5079914;28;20052;-70
2020/12/25 00:20:56;;;;;;;77.43;53.00;;;12.20;99.90;;;;;;5088743;28;20027;-71
2020/12/25 00:23:21;;;;;;;88.55;54.45;;;12.20;99.90;;;;;;5085253;28;20476;-70
2020/12/25 00:25:47;;;;;;;78.55;55.22;;;12.20;99.90;;;;;;5084537;28;20016;-69
2020/12/25 00:28:14;;;;;;;84.28;55.60;;;12.20;99.90;;;;;;5083673;28;20353;-69
2020/12/25 00:30:43;;;;;;;84.32;58.88;;;12.10;99.90;;;;;;5076765;28;20025;-69
2020/12/25 00:33:10;;;;;;;73.25;52.05;;;12.00;99.90;;;;;;5085655;28;20073;-69
2020/12/25 00:35:36;;;;;;;75.85;54.88;;;12.10;99.90;;;;;;5083824;28;20488;-70
2020/12/25 00:38:01;;;;;;;76.05;55.83;;;12.10;99.90;;;;;;5083013;28;20039;-69
2020/12/25 00:40:28;;;;;;;78.05;53.92;;;12.10;99.90;;;;;;5078344;28;20044;-70
2020/12/25 00:42:53;;;;;;;79.25;55.13;;;12.10;99.90;;;;;;5078661;28;20706;-70
2020/12/25 00:45:19;;;;;;;82.55;57.08;;;12.20;99.90;;;;;;5083862;28;20052;-70
2020/12/25 00:47:45;;;;;;;80.70;54.85;;;12.10;99.90;;;;;;5089022;28;20468;-69
2020/12/25 00:50:11;;;;;;;81.65;54.63;;;12.20;99.90;;;;;;5077725;28;20385;-70
2020/12/25 00:52:37;;;;;;;85.38;58.83;;;12.20;99.90;;;;;;5083850;28;20028;-69
2020/12/25 00:55:03;;;;;;;86.57;56.90;;;12.20;99.90;;;;;;5073212;28;20101;-70
2020/12/25 00:57:29;;;;;;;85.57;55.92;;;12.10;99.90;;;;;;5081275;28;20021;-70
2020/12/25 00:59:54;;;;;;;79.82;59.38;;;12.10;99.90;;;;;;5080543;28;20391;-69
2020/12/25 01:02:20;;;;;;;95.88;63.00;;;12.10;99.90;;;;;;5082703;28;20024;-69
2020/12/25 01:04:46;;;;;;;98.30;64.28;;;12.20;99.90;;;;;;5084310;28;20456;-71
2020/12/25 01:07:12;;;;;;;108.35;66.63;;;12.20;99.90;;;;;;5085801;28;20055;-70
2020/12/25 01:09:37;;;;;;;99.97;63.17;;;12.10;99.90;;;;;;5087716;28;20042;-70
2020/12/25 01:12:03;;;;;;;96.88;63.88;;;12.10;99.90;;;;;;5088793;28;20020;-70
2020/12/25 01:14:30;;;;;;;100.60;63.03;;;12.20;99.90;;;;;;5083810;28;20043;-70
2020/12/25 01:16:56;;;;;;;101.90;66.40;;;12.20;99.90;;;;;;5080941;28;20020;-70
2020/12/25 01:19:26;;;;;;;109.60;65.88;;;12.20;99.90;;;;;;5078458;28;20021;-69
2020/12/25 01:21:52;;;;;;;98.78;64.60;;;12.20;99.90;;;;;;5081166;28;20434;-69
2020/12/25 01:24:18;;;;;;;99.68;62.00;;;12.20;99.90;;;;;;5070082;28;20025;-69
2020/12/25 01:26:44;;;;;;;98.47;62.13;;;12.20;99.90;;;;;;5075772;28;20027;-69
2020/12/25 01:29:10;;;;;;;96.43;63.78;;;12.10;99.90;;;;;;5073021;28;20032;-69
2020/12/25 01:31:35;;;;;;;93.80;65.10;;;12.10;99.90;;;;;;5072736;28;20020;-70
2020/12/25 01:34:01;;;;;;;116.82;68.82;;;12.10;99.90;;;;;;5082472;28;20095;-68
2020/12/25 01:36:27;;;;;;;115.63;72.20;;;12.10;99.90;;;;;;5083207;28;20020;-70
2020/12/25 01:38:53;;;;;;;113.32;71.35;;;12.10;99.90;;;;;;5081541;28;20099;-70
2020/12/25 01:41:20;;;;;;;112.30;68.32;;;12.00;99.90;;;;;;5074878;28;20103;-70
2020/12/25 01:43:46;;;;;;;104.97;69.57;;;12.00;99.90;;;;;;5082789;28;20020;-69
2020/12/25 01:46:13;;;;;;;108.15;67.35;;;12.00;99.90;;;;;;5078466;28;20388;-69
2020/12/25 01:48:40;;;;;;;102.78;66.18;;;11.90;99.90;;;;;;5082183;28;20463;-69
2020/12/25 01:51:08;;;;;;;107.15;67.38;;;11.80;99.90;;;;;;5078251;28;20473;-68
2020/12/25 01:53:35;;;;;;;106.90;68.63;;;11.70;99.90;;;;;;5078869;28;20056;-69
2020/12/25 01:56:02;;;;;;;108.20;70.90;;;11.60;99.90;;;;;;5079822;28;20103;-68
2020/12/25 01:58:30;;;;;;;112.72;69.13;;;11.50;99.90;;;;;;5076900;28;20662;-68
2020/12/25 02:00:57;;;;;;;99.95;67.93;;;11.50;99.90;;;;;;5081046;28;21423;-69
2020/12/25 02:03:22;;;;;;;108.43;68.13;;;11.40;99.90;;;;;;5080812;28;20388;-68
2020/12/25 02:05:48;;;;;;;107.80;67.72;;;11.30;99.90;;;;;;5089569;28;20024;-69
2020/12/25 02:08:15;;;;;;;102.63;67.65;;;11.30;99.90;;;;;;5081228;28;20047;-69
2020/12/25 02:10:41;;;;;;;103.18;69.55;;;11.30;99.90;;;;;;5089657;28;20020;-69
2020/12/25 02:13:08;;;;;;;118.13;72.45;;;11.30;99.90;;;;;;5087754;28;20073;-69
2020/12/25 02:15:35;;;;;;;110.72;67.45;;;11.40;99.90;;;;;;5082072;28;20056;-69
2020/12/25 02:18:01;;;;;;;103.45;69.30;;;11.40;99.90;;;;;;5082698;28;20054;-69
2020/12/25 02:20:27;;;;;;;92.30;65.32;;;11.50;99.90;;;;;;5072229;28;20150;-69
2020/12/25 02:22:53;;;;;;;99.63;66.20;;;11.50;99.90;;;;;;5081501;28;20119;-69
2020/12/25 02:25:19;;;;;;;97.13;66.80;;;11.50;99.90;;;;;;5071417;28;20505;-70
2020/12/25 02:27:45;;;;;;;104.57;66.32;;;11.60;99.90;;;;;;5087801;28;20069;-70
2020/12/25 02:30:11;;;;;;;98.53;65.15;;;11.50;99.90;;;;;;5070622;28;20056;-70
2020/12/25 02:32:37;;;;;;;89.28;61.92;;;11.50;99.90;;;;;;5085163;28;20415;-70
2020/12/25 02:35:04;;;;;;;96.57;64.68;;;11.50;99.90;;;;;;5086945;28;20065;-70
2020/12/25 02:37:30;;;;;;;94.88;67.40;;;11.60;99.90;;;;;;5082341;28;20049;-69
2020/12/25 02:39:56;;;;;;;96.05;63.22;;;11.60;99.90;;;;;;5072374;28;20021;-69
2020/12/25 02:42:21;;;;;;;93.18;63.20;;;11.60;99.90;;;;;;5084271;28;20029;-68
2020/12/25 02:44:47;;;;;;;92.75;63.40;;;11.50;99.90;;;;;;5086918;28;20024;-68
2020/12/25 02:47:13;;;;;;;93.80;62.85;;;11.50;99.90;;;;;;5083574;28;20023;-69
2020/12/25 02:49:39;;;;;;;94.95;62.55;;;11.50;99.90;;;;;;5079060;28;20046;-69
2020/12/25 02:52:05;;;;;;;98.78;64.75;;;11.40;99.90;;;;;;5080389;28;20087;-69
2020/12/25 02:54:31;;;;;;;95.68;63.45;;;11.40;99.90;;;;;;5075209;28;20028;-69
2020/12/25 02:56:57;;;;;;;98.65;68.13;;;11.40;99.90;;;;;;5079001;28;20048;-68
2020/12/25 02:59:24;;;;;;;88.10;61.05;;;11.40;99.90;;;;;;5075092;28;20476;-68
2020/12/25 03:01:50;;;;;;;95.07;62.53;;;11.30;99.90;;;;;;5078522;28;20082;-69
2020/12/25 03:04:17;;;;;;;95.95;63.60;;;11.40;99.90;;;;;;5089921;28;20025;-70
2020/12/25 03:06:42;;;;;;;96.63;64.80;;;11.40;99.90;;;;;;5081520;28;20103;-69
2020/12/25 03:09:09;;;;;;;100.10;66.80;;;11.30;99.90;;;;;;5077511;28;20063;-69
2020/12/25 03:11:34;;;;;;;100.35;66.72;;;11.40;99.90;;;;;;5070883;28;20045;-69
2020/12/25 03:14:00;;;;;;;99.78;67.07;;;11.40;99.90;;;;;;5078458;28;20056;-69
2020/12/25 03:16:26;;;;;;;103.78;65.85;;;11.40;99.90;;;;;;5079163;28;20016;-69
2020/12/25 03:18:51;;;;;;;98.45;65.22;;;11.40;99.90;;;;;;5078994;28;20062;-69
2020/12/25 03:21:17;;;;;;;103.85;68.40;;;11.40;99.90;;;;;;5077831;28;20031;-69
2020/12/25 03:23:43;;;;;;;102.80;67.50;;;11.40;99.90;;;;;;5081326;28;20091;-69
2020/12/25 03:26:09;;;;;;;104.70;71.28;;;11.40;99.90;;;;;;5085711;28;20029;-70
2020/12/25 03:28:34;;;;;;;105.25;68.40;;;11.40;99.90;;;;;;5077576;28;20035;-70
2020/12/25 03:31:00;;;;;;;106.45;69.38;;;11.50;99.90;;;;;;5082405;28;20024;-70
2020/12/25 03:33:26;;;;;;;111.13;65.70;;;11.50;99.90;;;;;;5084272;28;20076;-70
2020/12/25 03:35:52;;;;;;;107.45;63.65;;;11.40;99.90;;;;;;5085557;28;20448;-69
2020/12/25 03:38:18;;;;;;;110.40;66.53;;;11.40;99.90;;;;;;5086312;28;20028;-70
2020/12/25 03:40:44;;;;;;;115.22;65.95;;;11.40;99.90;;;;;;5085558;28;20016;-70
2020/12/25 03:43:09;;;;;;;104.22;65.13;;;11.40;99.90;;;;;;5088551;28;20119;-70
2020/12/25 03:45:35;;;;;;;117.45;68.70;;;11.40;99.90;;;;;;5092065;28;20038;-70
2020/12/25 03:48:01;;;;;;;109.40;66.68;;;11.40;99.90;;;;;;5092452;28;20494;-69
2020/12/25 03:50:29;;;;;;;112.80;68.60;;;11.40;99.90;;;;;;5085237;28;20368;-69
2020/12/25 03:52:55;;;;;;;123.28;67.25;;;11.50;99.90;;;;;;5083554;28;20036;-69
2020/12/25 03:55:21;;;;;;;129.35;72.68;;;11.50;99.90;;;;;;5079012;28;20388;-70
2020/12/25 03:57:48;;;;;;;136.25;71.05;;;11.50;99.90;;;;;;5085250;28;20496;-69
2020/12/25 04:00:14;;;;;;;125.35;72.40;;;11.60;99.90;;;;;;5093489;28;20032;-70
2020/12/25 04:02:39;;;;;;;120.07;73.32;;;11.60;99.90;;;;;;5084670;28;20081;-69
2020/12/25 04:05:05;;;;;;;128.15;74.28;;;11.50;99.90;;;;;;5083333;28;21349;-70
2020/12/25 04:07:31;;;;;;;126.80;74.22;;;11.50;99.90;;;;;;5078710;28;20073;-70
2020/12/25 04:09:57;;;;;;;130.07;72.93;;;11.40;99.90;;;;;;5084607;28;20578;-69
2020/12/25 04:12:23;;;;;;;131.75;74.35;;;11.50;99.90;;;;;;5086088;28;20115;-69
2020/12/25 04:14:49;;;;;;;119.78;73.05;;;11.40;99.90;;;;;;5091754;28;20020;-70
2020/12/25 04:17:15;;;;;;;135.98;72.88;;;11.50;99.90;;;;;;5084339;28;20040;-70
2020/12/25 04:19:40;;;;;;;146.30;73.95;;;11.50;99.90;;;;;;5081097;28;20099;-69
2020/12/25 04:22:06;;;;;;;130.32;72.93;;;11.50;99.90;;;;;;5082623;28;20036;-70
2020/12/25 04:24:32;;;;;;;134.23;75.05;;;11.50;99.90;;;;;;5080274;28;20012;-69
2020/12/25 04:26:58;;;;;;;134.32;72.72;;;11.40;99.90;;;;;;5076539;28;20146;-69
2020/12/25 04:29:24;;;;;;;141.35;76.95;;;11.40;99.90;;;;;;5080422;28;20092;-69
2020/12/25 04:31:50;;;;;;;136.40;75.18;;;11.40;99.90;;;;;;5081233;28;20036;-69
2020/12/25 04:34:15;;;;;;;149.52;72.45;;;11.40;99.90;;;;;;5075468;28;20024;-69
2020/12/25 04:36:41;;;;;;;165.60;76.65;;;11.40;99.90;;;;;;5080207;28;20095;-70
2020/12/25 04:39:07;;;;;;;140.60;72.20;;;11.40;99.90;;;;;;5084011;28;20107;-70
2020/12/25 04:41:34;;;;;;;155.35;78.03;;;11.40;99.90;;;;;;5085267;28;20024;-70
2020/12/25 04:44:02;;;;;;;146.93;74.20;;;11.40;99.90;;;;;;5086041;28;20031;-69
2020/12/25 04:46:27;;;;;;;134.10;72.53;;;11.30;99.90;;;;;;5082969;28;20017;-70
2020/12/25 04:48:53;;;;;;;123.65;70.72;;;11.30;99.90;;;;;;5079409;28;20043;-69
2020/12/25 04:51:19;;;;;;;133.77;72.53;;;11.20;99.90;;;;;;5088543;28;20159;-69
2020/12/25 04:53:52;;;;;;;132.55;73.32;;;11.20;99.90;;;;;;5083897;28;20031;-69
2020/12/25 04:56:23;;;;;;;149.82;75.75;;;11.20;99.90;;;;;;5090433;28;20388;-69
2020/12/25 04:58:50;;;;;;;128.10;71.43;;;11.20;99.90;;;;;;5075248;28;20059;-69
2020/12/25 05:01:16;;;;;;;133.70;70.25;;;11.30;99.90;;;;;;5082718;28;20059;-70
2020/12/25 05:03:43;;;;;;;146.35;72.35;;;11.40;99.90;;;;;;5083541;28;20020;-69
2020/12/25 05:06:14;;;;;;;134.60;66.47;;;11.30;99.90;;;;;;5086243;28;20048;-68
2020/12/25 05:08:44;;;;;;;123.63;68.88;;;11.40;99.90;;;;;;5080427;28;20063;-68
2020/12/25 05:11:12;;;;;;;128.95;69.15;;;11.40;99.90;;;;;;5077164;28;20116;-68
2020/12/25 05:13:48;;;;;;;149.52;77.50;;;11.40;99.90;;;;;;5082830;28;20037;-69
2020/12/25 05:16:15;;;;;;;136.52;71.47;;;11.40;99.90;;;;;;5074239;28;20369;-70
2020/12/25 05:18:43;;;;;;;131.93;71.50;;;11.30;99.90;;;;;;5080810;28;20035;-70
2020/12/25 05:21:12;;;;;;;127.80;69.35;;;11.30;99.90;;;;;;5087344;28;20017;-70
2020/12/25 05:23:40;;;;;;;125.00;74.97;;;11.20;99.90;;;;;;5082947;28;20333;-70
2020/12/25 05:26:07;;;;;;;133.00;70.25;;;11.10;99.90;;;;;;5074283;28;20470;-69
2020/12/25 05:28:37;;;;;;;122.85;71.65;;;11.20;99.90;;;;;;5079770;28;20020;-68
2020/12/25 05:31:04;;;;;;;117.90;69.15;;;11.10;99.90;;;;;;5073588;28;20446;-68
2020/12/25 05:33:31;;;;;;;119.20;68.20;;;11.10;99.90;;;;;;5078423;28;20029;-69
2020/12/25 05:35:56;;;;;;;134.43;76.47;;;11.00;99.90;;;;;;5079420;28;20021;-69
2020/12/25 05:38:23;;;;;;;127.28;72.78;;;11.00;99.90;;;;;;5083170;28;20421;-70
2020/12/25 05:40:49;;;;;;;117.47;69.75;;;11.00;99.90;;;;;;5081663;28;20043;-69
2020/12/25 05:43:17;;;;;;;142.57;73.47;;;11.10;99.90;;;;;;5082379;28;20020;-69
2020/12/25 05:45:43;;;;;;;129.93;72.40;;;11.00;99.90;;;;;;5090334;28;20524;-69
2020/12/25 05:48:10;;;;;;;130.95;70.70;;;11.00;99.90;;;;;;5079015;28;20028;-70
2020/12/25 05:50:37;;;;;;;137.75;72.35;;;11.10;99.90;;;;;;5085290;28;20138;-70
2020/12/25 05:53:03;;;;;;;134.98;73.45;;;11.10;99.90;;;;;;5079721;28;20062;-70
2020/12/25 05:55:29;;;;;;;128.70;68.55;;;11.10;99.90;;;;;;5078553;28;20116;-69
2020/12/25 05:57:56;;;;;;;128.93;68.05;;;11.10;99.90;;;;;;5089045;28;20055;-68
2020/12/25 06:00:24;;;;;;;137.25;68.85;;;11.10;99.90;;;;;;5083791;28;20021;-70
2020/12/25 06:02:52;;;;;;;144.27;67.25;;;11.10;99.90;;;;;;5079202;28;20039;-69
2020/12/25 06:05:19;;;;;;;120.85;64.40;;;11.00;99.90;;;;;;5071146;28;20519;-70
2020/12/25 06:07:49;;;;;;;127.70;68.22;;;11.10;99.90;;;;;;5076521;28;20021;-69
2020/12/25 06:10:17;;;;;;;122.40;66.68;;;11.10;99.90;;;;;;5086090;28;20028;-70
2020/12/25 06:12:43;;;;;;;138.85;67.68;;;11.10;99.90;;;;;;5091027;28;20032;-70
2020/12/25 06:15:11;;;;;;;138.15;66.82;;;11.00;99.90;;;;;;5091084;28;20379;-69
2020/12/25 06:17:51;;;;;;;134.55;68.13;;;11.00;99.90;;;;;;5091192;28;20388;-69
2020/12/25 06:20:18;;;;;;;134.75;67.47;;;11.00;99.90;;;;;;5090920;28;20046;-69
2020/12/25 06:22:45;;;;;;;130.55;67.05;;;11.10;99.90;;;;;;5090683;28;20024;-68
2020/12/25 06:25:15;;;;;;;122.13;66.18;;;11.10;99.90;;;;;;5090459;28;20012;-70
2020/12/25 06:27:56;;;;;;;121.18;68.95;;;11.00;99.90;;;;;;5091711;28;20048;-70
2020/12/25 06:30:25;;;;;;;132.60;68.53;;;11.10;99.90;;;;;;5091659;28;20387;-69
2020/12/25 06:32:53;;;;;;;151.43;74.55;;;11.00;99.90;;;;;;5089823;28;20032;-69
2020/12/25 06:35:40;;;;;;;131.00;70.80;;;11.00;99.90;;;;;;5088753;28;20047;-69
2020/12/25 06:38:18;;;;;;;139.23;70.25;;;11.00;99.90;;;;;;5087598;28;20031;-69
2020/12/25 06:40:44;;;;;;;144.48;70.05;;;11.00;99.90;;;;;;5081437;28;20020;-70
2020/12/25 06:43:20;;;;;;;145.02;71.97;;;11.00;99.90;;;;;;5068660;28;20031;-70
2020/12/25 06:45:57;;;;;;;146.25;73.47;;;11.00;99.90;;;;;;5080493;28;20456;-69
2020/12/25 06:48:22;;;;;;;131.30;69.32;;;11.10;99.90;;;;;;5071336;28;20565;-70
2020/12/25 06:50:56;;;;;;;135.63;66.28;;;11.00;99.90;;;;;;5085893;28;20129;-70
2020/12/25 06:53:32;;;;;;;125.80;66.50;;;11.00;99.90;;;;;;5082395;28;20016;-70
2020/12/25 06:56:16;;;;;;;115.32;60.92;;;10.90;99.90;;;;;;5084074;28;20033;-70
2020/12/25 06:58:53;;;;;;;60.33;36.20;;;11.00;99.90;;;;;;5083570;28;20447;-70
2020/12/25 07:01:43;;;;;;;41.10;25.52;;;10.90;99.90;;;;;;5076292;28;20110;-69
2020/12/25 07:04:26;;;;;;;18.05;11.85;;;10.90;99.90;;;;;;5088423;28;20031;-63
2020/12/25 07:07:02;;;;;;;16.75;8.18;;;10.90;99.90;;;;;;5086690;28;20353;-69
2020/12/25 07:09:45;;;;;;;12.13;7.38;;;11.00;99.90;;;;;;5087765;28;20468;-67
2020/12/25 07:12:22;;;;;;;6.25;3.85;;;11.00;99.90;;;;;;5073518;28;20104;-62
2020/12/25 07:14:49;;;;;;;10.70;2.80;;;11.10;99.90;;;;;;5089086;28;20056;-67
2020/12/25 07:17:15;;;;;;;5.20;2.08;;;11.10;99.90;;;;;;5078950;28;20056;-66
2020/12/25 07:19:43;;;;;;;5.07;1.90;;;11.00;99.90;;;;;;5078277;28;20032;-65
2020/12/25 07:22:09;;;;;;;5.40;1.77;;;10.90;99.90;;;;;;5082716;28;20115;-69
2020/12/25 07:24:42;;;;;;;4.82;1.90;;;11.00;99.90;;;;;;5092129;28;20543;-66
2020/12/25 07:27:09;;;;;;;2.88;1.65;;;11.00;99.90;;;;;;5090220;28;20115;-65
2020/12/25 07:29:36;;;;;;;7.88;1.77;;;10.90;99.90;;;;;;5090978;28;20037;-67
2020/12/25 07:32:03;;;;;;;2.53;1.23;;;11.00;99.90;;;;;;5084096;28;20031;-66
2020/12/25 07:34:29;;;;;;;7.53;2.55;;;11.00;99.90;;;;;;5078636;28;20028;-65
2020/12/25 07:36:56;;;;;;;7.32;1.58;;;11.00;99.90;;;;;;5080689;28;20017;-68
2020/12/25 07:39:23;;;;;;;1.77;1.00;;;11.00;99.90;;;;;;5070409;28;20020;-67
2020/12/25 07:41:50;;;;;;;1.02;0.93;;;11.00;99.90;;;;;;5080592;28;20031;-67
2020/12/25 07:44:19;;;;;;;3.10;2.15;;;11.00;99.90;;;;;;5084777;28;20542;-67
2020/12/25 07:46:45;;;;;;;4.32;0.93;;;11.00;99.90;;;;;;5078172;28;20108;-68
2020/12/25 07:49:11;;;;;;;4.95;1.20;;;10.90;99.90;;;;;;5077850;28;20045;-68
2020/12/25 07:51:37;;;;;;;1.55;0.95;;;10.90;99.90;;;;;;5071213;28;20020;-66
2020/12/25 07:54:04;;;;;;;2.13;0.90;;;10.70;99.90;;;;;;5085271;28;20059;-68
2020/12/25 07:56:34;;;;;;;5.35;1.15;;;10.60;99.90;;;;;;5085732;28;20024;-66
2020/12/25 07:59:01;;;;;;;6.82;1.90;;;10.60;99.90;;;;;;5081303;28;20025;-66
2020/12/25 08:01:28;;;;;;;1.27;0.88;;;10.50;99.90;;;;;;5076297;28;20028;-67
2020/12/25 08:03:57;;;;;;;2.28;1.05;;;10.40;99.90;;;;;;5081017;28;20024;-68
2020/12/25 08:06:25;;;;;;;2.00;1.00;;;10.30;99.90;;;;;;5086822;28;20024;-67
2020/12/25 08:08:53;;;;;;;2.10;1.27;;;10.20;99.90;;;;;;5087995;28;20024;-67
2020/12/25 08:11:21;;;;;;;1.80;1.17;;;10.20;99.90;;;;;;5080472;28;20030;-68
2020/12/25 08:13:49;;;;;;;1.92;1.40;;;10.20;99.90;;;;;;5079781;28;20035;-67
2020/12/25 08:16:15;;;;;;;2.80;1.35;;;10.20;99.90;;;;;;5079828;28;20107;-67
2020/12/25 08:18:41;;;;;;;1.90;1.08;;;10.20;99.90;;;;;;5088361;28;20491;-67
2020/12/25 08:21:07;;;;;;;2.67;1.50;;;10.20;99.90;;;;;;5082636;28;20036;-66
2020/12/25 08:23:36;;;;;;;1.98;1.17;;;10.20;99.90;;;;;;5087010;28;20533;-67
2020/12/25 08:26:07;;;;;;;4.57;1.10;;;10.20;99.90;;;;;;5089406;28;20020;-69
2020/12/25 08:28:33;;;;;;;5.45;1.63;;;10.20;99.90;;;;;;5090411;28;20107;-66
2020/12/25 08:31:17;;;;;;;4.78;1.10;;;10.20;99.90;;;;;;5087895;28;20035;-66
2020/12/25 08:33:52;;;;;;;2.70;1.10;;;10.20;99.90;;;;;;5082419;28;20036;-67
2020/12/25 08:36:18;;;;;;;4.20;0.70;;;10.30;99.90;;;;;;5089010;28;20498;-68
2020/12/25 08:38:45;;;;;;;2.50;1.17;;;10.30;99.90;;;;;;5080900;28;20473;-69
2020/12/25 08:41:10;;;;;;;0.88;0.68;;;10.20;99.90;;;;;;5086768;28;20028;-68
2020/12/25 08:43:37;;;;;;;1.23;0.73;;;10.30;99.90;;;;;;5090815;28;20051;-67
2020/12/25 08:46:03;;;;;;;1.77;1.23;;;10.20;99.90;;;;;;5086415;28;20028;-67
2020/12/25 08:48:31;;;;;;;2.75;1.17;;;10.30;99.90;;;;;;5089464;28;20031;-67
2020/12/25 08:51:13;;;;;;;7.63;1.40;;;10.40;99.90;;;;;;5079182;28;20028;-67
2020/12/25 08:53:48;;;;;;;5.85;1.67;;;10.30;99.90;;;;;;5074582;28;20024;-67
2020/12/25 08:56:16;;;;;;;2.97;1.38;;;10.40;99.90;;;;;;5084645;28;20020;-67
2020/12/25 08:58:53;;;;;;;8.13;1.65;;;10.50;99.90;;;;;;5089370;28;20119;-67
2020/12/25 09:01:19;;;;;;;3.05;1.25;;;10.60;99.90;;;;;;5086209;28;20391;-68
2020/12/25 09:03:45;;;;;;;1.90;1.30;;;10.60;99.90;;;;;;5083678;28;20016;-66
2020/12/25 09:06:11;;;;;;;4.50;1.58;;;10.70;99.90;;;;;;5087993;28;20043;-66
2020/12/25 09:08:38;;;;;;;4.75;2.30;;;10.60;99.90;;;;;;5089267;28;20032;-69
2020/12/25 09:11:09;;;;;;;2.30;1.23;;;10.60;99.90;;;;;;5088699;28;20039;-69
2020/12/25 09:13:35;;;;;;;2.55;1.25;;;10.60;99.90;;;;;;5090513;28;20395;-68
2020/12/25 09:16:01;;;;;;;3.25;1.20;;;10.60;99.90;;;;;;5091087;28;20020;-69
2020/12/25 09:18:27;;;;;;;4.60;1.20;;;10.60;99.90;;;;;;5089368;28;20400;-68
2020/12/25 09:20:53;;;;;;;4.15;1.25;;;10.60;99.90;;;;;;5089390;28;20032;-68
2020/12/25 09:23:18;;;;;;;2.15;1.30;;;10.60;99.90;;;;;;5090249;28;20036;-68
2020/12/25 09:25:44;;;;;;;4.40;2.10;;;10.70;99.90;;;;;;5087746;28;20548;-69
2020/12/25 09:28:10;;;;;;;6.40;2.17;;;10.90;99.90;;;;;;5076958;28;20027;-65
2020/12/25 09:30:36;;;;;;;5.80;1.77;;;11.10;99.90;;;;;;5090685;28;20499;-66
2020/12/25 09:33:02;;;;;;;3.60;1.67;;;11.40;99.90;;;;;;5081878;28;20044;-66
2020/12/25 09:35:28;;;;;;;2.10;1.25;;;11.40;99.90;;;;;;5082704;28;20484;-67
2020/12/25 09:37:54;;;;;;;2.45;1.40;;;11.40;99.90;;;;;;5079697;28;20033;-68
2020/12/25 09:40:19;;;;;;;2.22;1.50;;;11.50;99.90;;;;;;5079582;28;20432;-68
2020/12/25 09:42:45;;;;;;;3.78;2.28;;;11.60;99.90;;;;;;5080090;28;20025;-66
2020/12/25 09:45:11;;;;;;;3.75;2.03;;;11.60;99.90;;;;;;5076300;28;20035;-66
2020/12/25 09:47:36;;;;;;;4.15;2.22;;;11.60;99.90;;;;;;5082439;28;20169;-68
2020/12/25 09:50:03;;;;;;;3.42;2.05;;;11.60;99.90;;;;;;5081051;28;20032;-68
2020/12/25 09:52:29;;;;;;;6.50;1.88;;;11.50;99.90;;;;;;5077667;28;20025;-69
2020/12/25 09:54:55;;;;;;;3.72;2.20;;;11.30;99.90;;;;;;5090278;28;20030;-69
2020/12/25 09:57:22;;;;;;;3.42;1.63;;;11.30;99.90;;;;;;5091366;28;20034;-71
2020/12/25 09:59:48;;;;;;;6.85;2.25;;;11.40;99.90;;;;;;5082361;28;20024;-69
2020/12/25 10:02:14;;;;;;;9.57;3.65;;;11.60;99.90;;;;;;5090802;28;20082;-71
2020/12/25 10:04:40;;;;;;;2.85;1.75;;;11.60;99.90;;;;;;5086876;28;20016;-69
2020/12/25 10:07:05;;;;;;;5.88;2.80;;;11.60;99.90;;;;;;5081262;28;20020;-70
2020/12/25 10:09:31;;;;;;;7.68;2.50;;;11.60;99.90;;;;;;5088421;28;20455;-70
2020/12/25 10:11:57;;;;;;;3.45;1.88;;;11.60;99.90;;;;;;5082524;28;20073;-69
2020/12/25 10:14:22;;;;;;;5.03;1.83;;;11.60;99.90;;;;;;5079351;28;20039;-68
2020/12/25 10:16:48;;;;;;;5.28;1.80;;;11.50;99.90;;;;;;5082102;28;20021;-66
2020/12/25 10:19:14;;;;;;;3.40;2.20;;;11.40;99.90;;;;;;5086063;28;20491;-67
2020/12/25 10:21:41;;;;;;;5.93;1.75;;;11.30;99.90;;;;;;5085758;28;20075;-69
2020/12/25 10:24:06;;;;;;;3.00;2.13;;;11.50;99.90;;;;;;5086390;28;20036;-67
2020/12/25 10:26:32;;;;;;;3.15;2.10;;;11.60;99.90;;;;;;5087823;28;20020;-70
2020/12/25 10:28:58;;;;;;;3.47;2.60;;;11.80;99.90;;;;;;5089211;28;20020;-67
2020/12/25 10:31:23;;;;;;;4.32;2.08;;;11.90;99.90;;;;;;5071630;28;20017;-70
2020/12/25 10:33:49;;;;;;;1.52;1.08;;;12.00;99.90;;;;;;5081836;28;20537;-67
2020/12/25 10:36:15;;;;;;;1.55;1.23;;;11.70;99.90;;;;;;5080211;28;20046;-68
2020/12/25 10:38:40;;;;;;;4.57;1.58;;;11.50;99.90;;;;;;5086482;28;20081;-70
2020/12/25 10:41:08;;;;;;;2.10;1.65;;;11.50;99.90;;;;;;5080807;28;20265;-68
2020/12/25 10:43:34;;;;;;;3.03;1.02;;;11.40;99.90;;;;;;5075245;28;20051;-70
2020/12/25 10:46:00;;;;;;;1.25;0.90;;;11.30;99.90;;;;;;5082477;28;20095;-68
2020/12/25 10:48:25;;;;;;;3.00;1.20;;;11.20;99.90;;;;;;5083965;28;20472;-70
2020/12/25 10:50:51;;;;;;;1.77;1.40;;;11.20;99.90;;;;;;5078930;28;20500;-69
2020/12/25 10:53:17;;;;;;;7.00;1.92;;;11.10;99.90;;;;;;5081277;28;20441;-67
2020/12/25 10:55:43;;;;;;;2.28;1.55;;;11.00;99.90;;;;;;5075129;28;20017;-73
2020/12/25 10:58:11;;;;;;;0.82;0.63;;;10.70;99.90;;;;;;5082396;28;20397;-70
2020/12/25 11:00:37;;;;;;;2.17;1.98;;;10.70;99.90;;;;;;5079754;28;20031;-68
2020/12/25 11:03:03;;;;;;;2.28;0.88;;;10.50;99.90;;;;;;5088686;28;20032;-69
2020/12/25 11:05:28;;;;;;;0.85;0.77;;;10.30;99.90;;;;;;5083057;28;20031;-67
2020/12/25 11:07:57;;;;;;;0.50;0.50;;;10.30;99.90;;;;;;5081988;28;20407;-68
2020/12/25 11:10:24;;;;;;;0.47;0.47;;;10.30;99.90;;;;;;5088697;28;20019;-68
2020/12/25 11:12:50;;;;;;;0.60;0.50;;;10.30;99.90;;;;;;5079429;28;20054;-68
2020/12/25 11:15:15;;;;;;;0.70;0.70;;;10.10;99.90;;;;;;5083358;28;20107;-66
2020/12/25 11:17:41;;;;;;;6.50;1.80;;;10.20;99.90;;;;;;5082512;28;20024;-65
2020/12/25 11:20:06;;;;;;;1.13;0.77;;;10.00;99.90;;;;;;5078369;28;20052;-68
2020/12/25 11:22:32;;;;;;;0.50;0.50;;;10.10;99.90;;;;;;5074893;28;20027;-68
2020/12/25 11:24:58;;;;;;;0.32;0.32;;;10.20;99.90;;;;;;5080408;28;20119;-66
2020/12/25 11:27:23;;;;;;;0.98;0.75;;;10.20;99.90;;;;;;5087832;28;20099;-67
2020/12/25 11:29:49;;;;;;;1.10;1.00;;;10.30;99.90;;;;;;5087321;28;20059;-70
2020/12/25 11:32:15;;;;;;;1.23;0.63;;;10.30;99.90;;;;;;5079615;28;20201;-67
2020/12/25 11:34:40;;;;;;;0.43;0.43;;;10.30;99.90;;;;;;5084832;28;20021;-68
2020/12/25 11:37:06;;;;;;;0.65;0.57;;;10.30;99.90;;;;;;5077330;28;20070;-69
2020/12/25 11:39:32;;;;;;;0.70;0.70;;;10.10;99.90;;;;;;5085568;28;20396;-67
2020/12/25 11:41:57;;;;;;;0.47;0.43;;;10.00;99.90;;;;;;5087090;28;20032;-69
2020/12/25 11:44:23;;;;;;;0.32;0.32;;;10.00;99.90;;;;;;5080092;28;20480;-68
2020/12/25 11:46:48;;;;;;;0.63;0.63;;;10.00;99.90;;;;;;5086663;28;20044;-67
2020/12/25 11:49:14;;;;;;;0.47;0.47;;;10.00;99.90;;;;;;5078679;28;20537;-67
2020/12/25 11:51:40;;;;;;;1.02;0.93;;;10.00;99.90;;;;;;5077463;28;20017;-67
2020/12/25 11:54:05;;;;;;;0.80;0.80;;;10.10;99.90;;;;;;5085386;28;20020;-67
2020/12/25 11:56:31;;;;;;;1.30;0.47;;;10.20;99.90;;;;;;5089615;28;20028;-66
2020/12/25 11:58:58;;;;;;;1.88;0.90;;;10.30;99.90;;;;;;5090345;28;20032;-67
2020/12/25 12:01:24;;;;;;;0.50;0.50;;;10.20;99.90;;;;;;5089515;28;20024;-66
2020/12/25 12:03:50;;;;;;;1.50;0.43;;;10.20;99.90;;;;;;5076047;28;20025;-67
2020/12/25 12:06:20;;;;;;;2.85;0.40;;;10.10;99.90;;;;;;5085963;28;20024;-68
2020/12/25 12:08:46;;;;;;;0.45;0.45;;;10.10;99.90;;;;;;5084055;28;20558;-67
2020/12/25 12:11:12;;;;;;;0.88;0.40;;;10.10;99.90;;;;;;5091192;28;20051;-68
2020/12/25 12:13:38;;;;;;;0.45;0.32;;;10.20;99.90;;;;;;5077902;28;20120;-68
2020/12/25 12:16:04;;;;;;;1.67;0.43;;;10.10;99.90;;;;;;5086071;28;20085;-66
2020/12/25 12:18:29;;;;;;;0.90;0.50;;;10.10;99.90;;;;;;5090912;28;20079;-66
2020/12/25 12:20:55;;;;;;;0.57;0.57;;;10.20;99.90;;;;;;5095883;28;20059;-67
2020/12/25 12:23:21;;;;;;;0.47;0.47;;;10.20;99.90;;;;;;5088178;28;20020;-66
2020/12/25 12:25:47;;;;;;;0.60;0.60;;;10.20;99.90;;;;;;5081739;28;20016;-67
2020/12/25 12:28:12;;;;;;;0.47;0.40;;;10.30;99.90;;;;;;5085628;28;20020;-66
2020/12/25 12:30:38;;;;;;;0.55;0.38;;;10.40;99.90;;;;;;5089783;28;20049;-66